Oconomowoc, WI

12:40 PM CST on February 12, 2016 (GMT -0600)
Genesee Lake Farms | | Change Station
CLOSE
Current Station
Personal Weather Station
Location: Oconomowoc, WI
Elevation: 884 ft
Nearby Weather Stations
Active Advisory: Wind Chill Advisory

Elev 884 ft 43.04 °N, 88.49 °W | Updated 4 seconds ago

Overcast
Overcast
17.8 °F
Feels Like 18 °F
N
0.0
Wind Variable Wind from NW
Gusts 9.0 mph

Today
High -- | Low -- °F
--% Chance of Precip.
Yesterday
High -- | Low -- °F
Precip. -- in
Pressure 30.14 in
Visibility 7.0 miles
Clouds Mostly Cloudy 3100 ft
Mostly Cloudy 3900 ft
Windchill 18 °F
Dew Point 6 °F
Humidity 59%
Rainfall 0.00 in
Snow Depth Not available.
6:56 AM 5:20 PM
Waxing Crescent, 22% visible
METAR KUES 121745Z 29017G23KT 7SM BKN031 BKN039 M09/M14 A3014
Pressure 30.14 in
Visibility 7.0 miles
Clouds Mostly Cloudy 3100 ft
Mostly Cloudy 3900 ft
Windchill 18 °F
Dew Point 6 °F
Humidity 59%
Rainfall 0.00 in
Snow Depth Not available.
6:56 AM 5:20 PM
Waxing Crescent, 22% visible
METAR KUES 121745Z 29017G23KT 7SM BKN031 BKN039 M09/M14 A3014

10-Day Weather Forecast

Almanac

Astronomy

Feb. 12, 2016 Rise Set
Actual Time
Civil Twilight
Nautical Twilight
Astronomical Twilight
Moon
Length of Visible Light
Length of Day
Tomorrow will be .
, % of the Moon is Illuminated

Today's Extremes

State Highs State Lows

Community

WunderPhotos

Upload Photos

1,892,366 photos uploaded!

WunderBlog® & News

Nearby

Air Quality

  Air Quality AQ Index Pollutant
Not available.

Snow Depth

Station Depth Elevation

Earthquake Activity

City Distance Mag. Time & Date
Minimum magnitude displayed is 2.5.

Coastal Water Temperatures

Place Temperature

Stations

Nearby Weather Stations

Station Location Temp. Windchill Dew Point Humidity Wind Precip. Elev Updated Type
                   

Watches & Warnings

Wind Chill Advisory
Issued: 12:14 PM CST Feb. 12, 2016 – National Weather Service

... Wind Chill Advisory remains in effect from midnight tonight to
9 am CST Saturday...

A Wind Chill Advisory remains in effect from midnight tonight to
9 am CST Saturday.

* Tonight through early Saturday.

* Wind chill values of 20 to 25 degrees below zero are expected.

Precautionary/preparedness actions...

A Wind Chill Advisory means that very cold air and strong winds
will combine to generate low wind chills. This will result in
frost bite and lead to hypothermia if precautions are not taken.
If you must venture outdoors... make sure you wear a hat and
gloves.